sensor_id;sensor_type;location;lat;lon;timestamp;P1;durP1;ratioP1;P2;durP2;ratioP2
29774;SDS011;16676;51.202;6.774;2023-07-20T00:03:27;3.55;;;1.50;;
29774;SDS011;16676;51.202;6.774;2023-07-20T00:07:30;2.25;;;1.27;;
29774;SDS011;16676;51.202;6.774;2023-07-20T00:11:35;3.10;;;1.20;;
29774;SDS011;16676;51.202;6.774;2023-07-20T00:15:37;3.58;;;1.60;;
29774;SDS011;16676;51.202;6.774;2023-07-20T00:19:40;2.60;;;1.35;;
29774;SDS011;16676;51.202;6.774;2023-07-20T00:23:43;2.17;;;1.48;;
29774;SDS011;16676;51.202;6.774;2023-07-20T00:27:45;2.20;;;1.60;;
29774;SDS011;16676;51.202;6.774;2023-07-20T00:31:47;3.25;;;1.52;;
29774;SDS011;16676;51.202;6.774;2023-07-20T00:35:49;2.60;;;1.45;;
29774;SDS011;16676;51.202;6.774;2023-07-20T00:39:53;2.92;;;1.52;;
29774;SDS011;16676;51.202;6.774;2023-07-20T00:43:55;2.78;;;1.40;;
29774;SDS011;16676;51.202;6.774;2023-07-20T00:47:57;3.88;;;1.85;;
29774;SDS011;16676;51.202;6.774;2023-07-20T00:51:59;2.50;;;1.50;;
29774;SDS011;16676;51.202;6.774;2023-07-20T00:56:03;3.35;;;1.58;;
29774;SDS011;16676;51.202;6.774;2023-07-20T01:00:07;3.22;;;1.65;;
29774;SDS011;16676;51.202;6.774;2023-07-20T01:04:10;3.60;;;1.50;;
29774;SDS011;16676;51.202;6.774;2023-07-20T01:08:21;2.50;;;1.60;;
29774;SDS011;16676;51.202;6.774;2023-07-20T01:12:40;2.70;;;1.33;;
29774;SDS011;16676;51.202;6.774;2023-07-20T01:16:43;5.78;;;1.67;;
29774;SDS011;16676;51.202;6.774;2023-07-20T01:20:45;3.28;;;1.50;;
29774;SDS011;16676;51.202;6.774;2023-07-20T01:29:24;3.03;;;1.38;;
29774;SDS011;16676;51.202;6.774;2023-07-20T01:33:37;2.47;;;1.60;;
29774;SDS011;16676;51.202;6.774;2023-07-20T01:37:42;1.83;;;1.45;;
29774;SDS011;16676;51.202;6.774;2023-07-20T01:41:45;2.40;;;1.35;;
29774;SDS011;16676;51.202;6.774;2023-07-20T01:45:48;2.97;;;1.50;;
29774;SDS011;16676;51.202;6.774;2023-07-20T01:49:51;3.13;;;1.50;;
29774;SDS011;16676;51.202;6.774;2023-07-20T01:53:53;1.98;;;1.40;;
29774;SDS011;16676;51.202;6.774;2023-07-20T01:57:55;2.22;;;1.50;;
29774;SDS011;16676;51.202;6.774;2023-07-20T02:01:57;2.92;;;1.67;;
29774;SDS011;16676;51.202;6.774;2023-07-20T02:06:01;2.40;;;1.38;;
29774;SDS011;16676;51.202;6.774;2023-07-20T02:10:03;2.90;;;1.48;;
29774;SDS011;16676;51.202;6.774;2023-07-20T02:14:05;2.53;;;1.50;;
29774;SDS011;16676;51.202;6.774;2023-07-20T02:18:07;3.17;;;1.40;;
29774;SDS011;16676;51.202;6.774;2023-07-20T02:22:11;2.92;;;1.30;;
29774;SDS011;16676;51.202;6.774;2023-07-20T02:26:12;2.30;;;1.27;;
29774;SDS011;16676;51.202;6.774;2023-07-20T02:30:15;2.55;;;1.17;;
29774;SDS011;16676;51.202;6.774;2023-07-20T02:34:17;1.83;;;1.23;;
29774;SDS011;16676;51.202;6.774;2023-07-20T02:38:21;2.85;;;1.42;;
29774;SDS011;16676;51.202;6.774;2023-07-20T02:42:23;3.28;;;1.63;;
29774;SDS011;16676;51.202;6.774;2023-07-20T02:46:26;4.35;;;1.50;;
29774;SDS011;16676;51.202;6.774;2023-07-20T02:50:30;2.03;;;1.17;;
29774;SDS011;16676;51.202;6.774;2023-07-20T02:54:33;3.00;;;1.25;;
29774;SDS011;16676;51.202;6.774;2023-07-20T02:58:35;2.30;;;1.27;;
29774;SDS011;16676;51.202;6.774;2023-07-20T03:02:43;1.27;;;1.13;;
29774;SDS011;16676;51.202;6.774;2023-07-20T03:06:47;3.85;;;1.48;;
29774;SDS011;16676;51.202;6.774;2023-07-20T03:10:51;2.83;;;1.35;;
29774;SDS011;16676;51.202;6.774;2023-07-20T03:14:52;2.50;;;1.60;;
29774;SDS011;16676;51.202;6.774;2023-07-20T03:18:57;3.78;;;1.55;;
29774;SDS011;16676;51.202;6.774;2023-07-20T03:22:59;2.80;;;1.38;;
29774;SDS011;16676;51.202;6.774;2023-07-20T03:27:02;2.53;;;1.17;;
29774;SDS011;16676;51.202;6.774;2023-07-20T03:31:05;2.97;;;1.42;;
29774;SDS011;16676;51.202;6.774;2023-07-20T03:35:07;2.38;;;1.48;;
29774;SDS011;16676;51.202;6.774;2023-07-20T03:39:09;3.67;;;1.58;;
29774;SDS011;16676;51.202;6.774;2023-07-20T03:43:12;1.98;;;1.13;;
29774;SDS011;16676;51.202;6.774;2023-07-20T03:47:14;2.95;;;1.35;;
29774;SDS011;16676;51.202;6.774;2023-07-20T03:51:16;2.80;;;1.40;;
29774;SDS011;16676;51.202;6.774;2023-07-20T03:55:18;2.05;;;1.40;;
29774;SDS011;16676;51.202;6.774;2023-07-20T03:59:22;2.35;;;1.58;;
29774;SDS011;16676;51.202;6.774;2023-07-20T04:03:24;1.65;;;1.23;;
29774;SDS011;16676;51.202;6.774;2023-07-20T04:07:26;3.80;;;1.60;;
29774;SDS011;16676;51.202;6.774;2023-07-20T04:11:28;2.58;;;1.33;;
29774;SDS011;16676;51.202;6.774;2023-07-20T04:15:32;3.55;;;1.77;;
29774;SDS011;16676;51.202;6.774;2023-07-20T04:19:34;3.80;;;1.40;;
29774;SDS011;16676;51.202;6.774;2023-07-20T04:23:35;3.03;;;1.67;;
29774;SDS011;16676;51.202;6.774;2023-07-20T04:27:37;2.00;;;1.30;;
29774;SDS011;16676;51.202;6.774;2023-07-20T04:31:41;3.60;;;1.75;;
29774;SDS011;16676;51.202;6.774;2023-07-20T04:35:49;1.80;;;1.20;;
29774;SDS011;16676;51.202;6.774;2023-07-20T04:39:52;2.85;;;1.58;;
29774;SDS011;16676;51.202;6.774;2023-07-20T04:43:54;4.07;;;1.80;;
29774;SDS011;16676;51.202;6.774;2023-07-20T04:47:58;2.65;;;1.50;;
29774;SDS011;16676;51.202;6.774;2023-07-20T04:52:00;3.33;;;1.70;;
29774;SDS011;16676;51.202;6.774;2023-07-20T04:56:03;2.83;;;1.52;;
29774;SDS011;16676;51.202;6.774;2023-07-20T05:00:05;2.90;;;1.52;;
29774;SDS011;16676;51.202;6.774;2023-07-20T05:04:11;2.40;;;1.30;;
29774;SDS011;16676;51.202;6.774;2023-07-20T05:08:13;3.65;;;1.83;;
29774;SDS011;16676;51.202;6.774;2023-07-20T05:12:16;5.35;;;1.83;;
29774;SDS011;16676;51.202;6.774;2023-07-20T05:16:18;4.25;;;2.17;;
29774;SDS011;16676;51.202;6.774;2023-07-20T05:20:21;6.13;;;1.85;;
29774;SDS011;16676;51.202;6.774;2023-07-20T05:24:23;3.03;;;1.88;;
29774;SDS011;16676;51.202;6.774;2023-07-20T05:28:25;7.80;;;2.33;;
29774;SDS011;16676;51.202;6.774;2023-07-20T05:32:28;3.75;;;1.85;;
29774;SDS011;16676;51.202;6.774;2023-07-20T05:36:31;4.45;;;1.70;;
29774;SDS011;16676;51.202;6.774;2023-07-20T05:40:33;4.38;;;2.13;;
29774;SDS011;16676;51.202;6.774;2023-07-20T05:44:37;3.67;;;1.90;;
29774;SDS011;16676;51.202;6.774;2023-07-20T05:48:39;4.45;;;1.98;;
29774;SDS011;16676;51.202;6.774;2023-07-20T05:52:42;4.15;;;1.80;;
29774;SDS011;16676;51.202;6.774;2023-07-20T05:56:45;4.40;;;2.28;;
29774;SDS011;16676;51.202;6.774;2023-07-20T06:00:47;4.53;;;2.20;;
29774;SDS011;16676;51.202;6.774;2023-07-20T06:04:50;3.55;;;1.98;;
29774;SDS011;16676;51.202;6.774;2023-07-20T06:08:53;3.47;;;2.00;;
29774;SDS011;16676;51.202;6.774;2023-07-20T06:12:55;4.20;;;2.33;;
29774;SDS011;16676;51.202;6.774;2023-07-20T06:16:57;5.20;;;2.42;;
29774;SDS011;16676;51.202;6.774;2023-07-20T06:20:59;4.72;;;2.40;;
29774;SDS011;16676;51.202;6.774;2023-07-20T06:25:03;5.00;;;2.53;;
29774;SDS011;16676;51.202;6.774;2023-07-20T06:29:05;5.30;;;2.17;;
29774;SDS011;16676;51.202;6.774;2023-07-20T06:33:07;4.32;;;1.92;;
29774;SDS011;16676;51.202;6.774;2023-07-20T06:37:09;5.53;;;2.00;;
29774;SDS011;16676;51.202;6.774;2023-07-20T06:41:12;2.50;;;1.80;;
29774;SDS011;16676;51.202;6.774;2023-07-20T06:45:14;2.85;;;1.92;;
29774;SDS011;16676;51.202;6.774;2023-07-20T06:49:23;3.78;;;1.95;;
29774;SDS011;16676;51.202;6.774;2023-07-20T06:53:26;3.40;;;1.65;;
29774;SDS011;16676;51.202;6.774;2023-07-20T06:57:29;2.70;;;1.60;;
29774;SDS011;16676;51.202;6.774;2023-07-20T07:01:31;2.28;;;1.80;;
29774;SDS011;16676;51.202;6.774;2023-07-20T07:05:35;3.55;;;1.60;;
29774;SDS011;16676;51.202;6.774;2023-07-20T07:09:38;2.75;;;1.30;;
29774;SDS011;16676;51.202;6.774;2023-07-20T07:13:41;4.93;;;1.33;;
29774;SDS011;16676;51.202;6.774;2023-07-20T07:17:43;3.72;;;1.60;;
29774;SDS011;16676;51.202;6.774;2023-07-20T07:21:45;2.78;;;1.15;;
29774;SDS011;16676;51.202;6.774;2023-07-20T07:25:47;2.63;;;1.10;;
29774;SDS011;16676;51.202;6.774;2023-07-20T07:29:50;2.30;;;1.35;;
29774;SDS011;16676;51.202;6.774;2023-07-20T07:33:52;2.13;;;1.17;;
29774;SDS011;16676;51.202;6.774;2023-07-20T07:37:54;2.53;;;1.10;;
29774;SDS011;16676;51.202;6.774;2023-07-20T07:41:56;1.40;;;1.10;;
29774;SDS011;16676;51.202;6.774;2023-07-20T07:46:00;2.67;;;1.55;;
29774;SDS011;16676;51.202;6.774;2023-07-20T07:50:02;1.85;;;1.02;;
29774;SDS011;16676;51.202;6.774;2023-07-20T07:54:04;2.17;;;1.10;;
29774;SDS011;16676;51.202;6.774;2023-07-20T07:58:06;1.92;;;1.10;;
29774;SDS011;16676;51.202;6.774;2023-07-20T08:02:10;1.58;;;1.10;;
29774;SDS011;16676;51.202;6.774;2023-07-20T08:06:12;1.85;;;1.10;;
29774;SDS011;16676;51.202;6.774;2023-07-20T08:10:14;1.35;;;1.15;;
29774;SDS011;16676;51.202;6.774;2023-07-20T08:14:16;1.67;;;0.98;;
29774;SDS011;16676;51.202;6.774;2023-07-20T08:18:20;2.35;;;0.90;;
29774;SDS011;16676;51.202;6.774;2023-07-20T08:22:22;1.83;;;0.80;;
29774;SDS011;16676;51.202;6.774;2023-07-20T08:26:24;2.33;;;0.70;;
29774;SDS011;16676;51.202;6.774;2023-07-20T08:30:26;1.60;;;0.95;;
29774;SDS011;16676;51.202;6.774;2023-07-20T08:34:42;1.38;;;0.77;;
29774;SDS011;16676;51.202;6.774;2023-07-20T08:38:44;1.90;;;0.88;;
29774;SDS011;16676;51.202;6.774;2023-07-20T08:42:48;1.95;;;0.90;;
29774;SDS011;16676;51.202;6.774;2023-07-20T08:46:51;1.83;;;0.80;;
29774;SDS011;16676;51.202;6.774;2023-07-20T08:50:55;1.30;;;0.80;;
29774;SDS011;16676;51.202;6.774;2023-07-20T08:55:00;1.65;;;0.75;;
29774;SDS011;16676;51.202;6.774;2023-07-20T08:59:04;0.98;;;0.70;;
29774;SDS011;16676;51.202;6.774;2023-07-20T09:03:07;1.58;;;0.70;;
29774;SDS011;16676;51.202;6.774;2023-07-20T09:07:10;1.67;;;0.70;;
29774;SDS011;16676;51.202;6.774;2023-07-20T09:11:13;1.77;;;0.70;;
29774;SDS011;16676;51.202;6.774;2023-07-20T09:15:15;1.85;;;0.60;;
29774;SDS011;16676;51.202;6.774;2023-07-20T09:19:18;0.50;;;0.45;;
29774;SDS011;16676;51.202;6.774;2023-07-20T09:23:21;0.60;;;0.50;;
29774;SDS011;16676;51.202;6.774;2023-07-20T09:27:35;0.82;;;0.57;;
29774;SDS011;16676;51.202;6.774;2023-07-20T09:31:38;1.42;;;0.45;;
29774;SDS011;16676;51.202;6.774;2023-07-20T09:35:41;1.33;;;0.60;;
29774;SDS011;16676;51.202;6.774;2023-07-20T09:39:46;0.63;;;0.40;;
29774;SDS011;16676;51.202;6.774;2023-07-20T09:43:49;1.58;;;0.60;;
29774;SDS011;16676;51.202;6.774;2023-07-20T09:47:51;0.50;;;0.40;;
29774;SDS011;16676;51.202;6.774;2023-07-20T09:51:53;0.85;;;0.50;;
29774;SDS011;16676;51.202;6.774;2023-07-20T09:55:57;1.05;;;0.38;;
29774;SDS011;16676;51.202;6.774;2023-07-20T10:00:00;0.60;;;0.40;;
29774;SDS011;16676;51.202;6.774;2023-07-20T10:04:04;1.83;;;0.60;;
29774;SDS011;16676;51.202;6.774;2023-07-20T10:08:10;0.85;;;0.47;;
29774;SDS011;16676;51.202;6.774;2023-07-20T10:12:15;0.70;;;0.35;;
29774;SDS011;16676;51.202;6.774;2023-07-20T10:16:20;1.02;;;0.50;;
29774;SDS011;16676;51.202;6.774;2023-07-20T10:20:27;0.40;;;0.40;;
29774;SDS011;16676;51.202;6.774;2023-07-20T10:24:31;0.60;;;0.38;;
29774;SDS011;16676;51.202;6.774;2023-07-20T10:28:35;0.50;;;0.40;;
29774;SDS011;16676;51.202;6.774;2023-07-20T10:32:37;0.65;;;0.35;;
29774;SDS011;16676;51.202;6.774;2023-07-20T10:36:43;0.60;;;0.30;;
29774;SDS011;16676;51.202;6.774;2023-07-20T10:40:55;0.93;;;0.40;;
29774;SDS011;16676;51.202;6.774;2023-07-20T10:44:58;0.63;;;0.32;;
29774;SDS011;16676;51.202;6.774;2023-07-20T10:49:03;1.33;;;0.60;;
29774;SDS011;16676;51.202;6.774;2023-07-20T10:53:10;0.98;;;0.70;;
29774;SDS011;16676;51.202;6.774;2023-07-20T10:57:21;1.00;;;0.60;;
29774;SDS011;16676;51.202;6.774;2023-07-20T11:01:28;1.52;;;0.70;;
29774;SDS011;16676;51.202;6.774;2023-07-20T11:05:35;1.38;;;0.57;;
29774;SDS011;16676;51.202;6.774;2023-07-20T11:13:50;0.65;;;0.50;;
29774;SDS011;16676;51.202;6.774;2023-07-20T11:22:15;0.50;;;0.35;;
29774;SDS011;16676;51.202;6.774;2023-07-20T11:26:18;0.90;;;0.50;;
29774;SDS011;16676;51.202;6.774;2023-07-20T11:30:20;0.52;;;0.32;;
29774;SDS011;16676;51.202;6.774;2023-07-20T11:34:24;1.45;;;0.60;;
29774;SDS011;16676;51.202;6.774;2023-07-20T11:38:28;0.85;;;0.50;;
29774;SDS011;16676;51.202;6.774;2023-07-20T11:42:30;0.38;;;0.38;;
29774;SDS011;16676;51.202;6.774;2023-07-20T11:46:34;0.90;;;0.43;;
29774;SDS011;16676;51.202;6.774;2023-07-20T11:50:39;2.05;;;0.50;;
29774;SDS011;16676;51.202;6.774;2023-07-20T11:54:42;0.55;;;0.47;;
29774;SDS011;16676;51.202;6.774;2023-07-20T11:58:44;0.85;;;0.40;;
29774;SDS011;16676;51.202;6.774;2023-07-20T12:02:47;0.90;;;0.40;;
29774;SDS011;16676;51.202;6.774;2023-07-20T12:06:50;0.90;;;0.50;;
29774;SDS011;16676;51.202;6.774;2023-07-20T12:10:55;0.50;;;0.40;;
29774;SDS011;16676;51.202;6.774;2023-07-20T12:15:11;0.57;;;0.50;;
29774;SDS011;16676;51.202;6.774;2023-07-20T12:19:17;0.93;;;0.55;;
29774;SDS011;16676;51.202;6.774;2023-07-20T12:23:20;0.50;;;0.50;;
29774;SDS011;16676;51.202;6.774;2023-07-20T12:27:22;0.82;;;0.40;;
29774;SDS011;16676;51.202;6.774;2023-07-20T12:31:29;0.73;;;0.50;;
29774;SDS011;16676;51.202;6.774;2023-07-20T12:35:32;0.50;;;0.32;;
29774;SDS011;16676;51.202;6.774;2023-07-20T12:39:35;1.52;;;0.60;;
29774;SDS011;16676;51.202;6.774;2023-07-20T12:43:37;0.38;;;0.38;;
29774;SDS011;16676;51.202;6.774;2023-07-20T12:47:40;1.77;;;0.60;;
29774;SDS011;16676;51.202;6.774;2023-07-20T12:51:43;0.82;;;0.50;;
29774;SDS011;16676;51.202;6.774;2023-07-20T12:55:46;0.80;;;0.50;;
29774;SDS011;16676;51.202;6.774;2023-07-20T12:59:48;0.70;;;0.40;;
29774;SDS011;16676;51.202;6.774;2023-07-20T13:03:50;1.83;;;0.50;;
29774;SDS011;16676;51.202;6.774;2023-07-20T13:07:52;0.60;;;0.40;;
29774;SDS011;16676;51.202;6.774;2023-07-20T13:11:55;1.63;;;0.52;;
29774;SDS011;16676;51.202;6.774;2023-07-20T13:15:58;1.55;;;0.63;;
29774;SDS011;16676;51.202;6.774;2023-07-20T13:20:00;0.98;;;0.55;;
29774;SDS011;16676;51.202;6.774;2023-07-20T13:24:05;1.33;;;0.47;;
29774;SDS011;16676;51.202;6.774;2023-07-20T13:28:08;0.50;;;0.50;;
29774;SDS011;16676;51.202;6.774;2023-07-20T13:32:10;0.95;;;0.50;;
29774;SDS011;16676;51.202;6.774;2023-07-20T13:36:14;0.75;;;0.47;;
29774;SDS011;16676;51.202;6.774;2023-07-20T13:40:16;2.55;;;0.70;;
29774;SDS011;16676;51.202;6.774;2023-07-20T13:44:21;1.20;;;0.70;;
29774;SDS011;16676;51.202;6.774;2023-07-20T13:48:23;1.30;;;0.52;;
29774;SDS011;16676;51.202;6.774;2023-07-20T13:52:25;0.85;;;0.50;;
29774;SDS011;16676;51.202;6.774;2023-07-20T13:56:27;0.90;;;0.70;;
29774;SDS011;16676;51.202;6.774;2023-07-20T14:00:30;0.90;;;0.50;;
29774;SDS011;16676;51.202;6.774;2023-07-20T14:04:33;2.40;;;0.60;;
29774;SDS011;16676;51.202;6.774;2023-07-20T14:08:35;1.15;;;0.73;;
29774;SDS011;16676;51.202;6.774;2023-07-20T14:12:37;0.85;;;0.60;;
29774;SDS011;16676;51.202;6.774;2023-07-20T14:16:41;1.63;;;0.77;;
29774;SDS011;16676;51.202;6.774;2023-07-20T14:20:43;2.55;;;0.75;;
29774;SDS011;16676;51.202;6.774;2023-07-20T14:24:44;1.10;;;0.47;;
29774;SDS011;16676;51.202;6.774;2023-07-20T14:28:46;1.45;;;0.50;;
29774;SDS011;16676;51.202;6.774;2023-07-20T14:32:50;0.85;;;0.50;;
29774;SDS011;16676;51.202;6.774;2023-07-20T14:36:52;0.77;;;0.60;;
29774;SDS011;16676;51.202;6.774;2023-07-20T14:40:55;1.48;;;0.70;;
29774;SDS011;16676;51.202;6.774;2023-07-20T14:44:57;1.02;;;0.60;;
29774;SDS011;16676;51.202;6.774;2023-07-20T14:49:00;0.82;;;0.50;;
29774;SDS011;16676;51.202;6.774;2023-07-20T14:53:03;2.75;;;0.40;;
29774;SDS011;16676;51.202;6.774;2023-07-20T14:57:05;1.60;;;0.60;;
29774;SDS011;16676;51.202;6.774;2023-07-20T15:01:13;0.70;;;0.50;;
29774;SDS011;16676;51.202;6.774;2023-07-20T15:05:21;1.23;;;0.52;;
29774;SDS011;16676;51.202;6.774;2023-07-20T15:09:24;0.75;;;0.50;;
29774;SDS011;16676;51.202;6.774;2023-07-20T15:13:26;1.05;;;0.45;;
29774;SDS011;16676;51.202;6.774;2023-07-20T15:17:28;1.13;;;0.50;;
29774;SDS011;16676;51.202;6.774;2023-07-20T15:21:31;1.48;;;0.68;;
29774;SDS011;16676;51.202;6.774;2023-07-20T15:25:33;1.17;;;0.60;;
29774;SDS011;16676;51.202;6.774;2023-07-20T15:29:35;0.90;;;0.50;;
29774;SDS011;16676;51.202;6.774;2023-07-20T15:33:37;0.60;;;0.43;;
29774;SDS011;16676;51.202;6.774;2023-07-20T15:37:40;0.80;;;0.50;;
29774;SDS011;16676;51.202;6.774;2023-07-20T15:41:42;0.70;;;0.60;;
29774;SDS011;16676;51.202;6.774;2023-07-20T15:45:46;1.80;;;0.63;;
29774;SDS011;16676;51.202;6.774;2023-07-20T15:49:49;1.60;;;0.60;;
29774;SDS011;16676;51.202;6.774;2023-07-20T15:53:52;0.65;;;0.30;;
29774;SDS011;16676;51.202;6.774;2023-07-20T15:57:54;0.80;;;0.60;;
29774;SDS011;16676;51.202;6.774;2023-07-20T16:01:56;2.55;;;0.90;;
29774;SDS011;16676;51.202;6.774;2023-07-20T16:05:58;2.22;;;0.75;;
29774;SDS011;16676;51.202;6.774;2023-07-20T16:10:02;1.67;;;0.70;;
29774;SDS011;16676;51.202;6.774;2023-07-20T16:18:10;1.00;;;0.50;;
29774;SDS011;16676;51.202;6.774;2023-07-20T16:22:12;1.20;;;0.63;;
29774;SDS011;16676;51.202;6.774;2023-07-20T16:26:15;1.05;;;0.70;;
29774;SDS011;16676;51.202;6.774;2023-07-20T16:30:18;0.98;;;0.80;;
29774;SDS011;16676;51.202;6.774;2023-07-20T16:34:20;2.75;;;0.60;;
29774;SDS011;16676;51.202;6.774;2023-07-20T16:38:22;1.70;;;0.70;;
29774;SDS011;16676;51.202;6.774;2023-07-20T16:42:25;1.55;;;0.85;;
29774;SDS011;16676;51.202;6.774;2023-07-20T16:46:27;1.00;;;0.63;;
29774;SDS011;16676;51.202;6.774;2023-07-20T16:50:29;1.88;;;0.55;;
29774;SDS011;16676;51.202;6.774;2023-07-20T16:54:31;0.85;;;0.60;;
29774;SDS011;16676;51.202;6.774;2023-07-20T16:58:34;1.58;;;0.70;;
29774;SDS011;16676;51.202;6.774;2023-07-20T17:02:36;0.90;;;0.60;;
29774;SDS011;16676;51.202;6.774;2023-07-20T17:06:38;1.48;;;0.63;;
29774;SDS011;16676;51.202;6.774;2023-07-20T17:10:40;0.50;;;0.50;;
29774;SDS011;16676;51.202;6.774;2023-07-20T17:14:44;0.95;;;0.63;;
29774;SDS011;16676;51.202;6.774;2023-07-20T17:18:45;1.90;;;0.47;;
29774;SDS011;16676;51.202;6.774;2023-07-20T17:22:47;0.57;;;0.55;;
29774;SDS011;16676;51.202;6.774;2023-07-20T17:26:50;1.40;;;0.60;;
29774;SDS011;16676;51.202;6.774;2023-07-20T17:30:59;0.90;;;0.52;;
29774;SDS011;16676;51.202;6.774;2023-07-20T17:35:01;0.82;;;0.40;;
29774;SDS011;16676;51.202;6.774;2023-07-20T17:39:04;2.33;;;0.60;;
29774;SDS011;16676;51.202;6.774;2023-07-20T17:43:07;1.60;;;0.60;;
29774;SDS011;16676;51.202;6.774;2023-07-20T17:47:10;0.60;;;0.40;;
29774;SDS011;16676;51.202;6.774;2023-07-20T17:51:12;0.75;;;0.40;;
29774;SDS011;16676;51.202;6.774;2023-07-20T17:55:15;0.73;;;0.63;;
29774;SDS011;16676;51.202;6.774;2023-07-20T17:59:16;1.67;;;0.60;;
29774;SDS011;16676;51.202;6.774;2023-07-20T18:03:20;1.73;;;0.60;;
29774;SDS011;16676;51.202;6.774;2023-07-20T18:07:22;1.73;;;0.60;;
29774;SDS011;16676;51.202;6.774;2023-07-20T18:11:24;3.75;;;0.60;;
29774;SDS011;16676;51.202;6.774;2023-07-20T18:15:26;2.15;;;0.70;;
29774;SDS011;16676;51.202;6.774;2023-07-20T18:19:29;1.00;;;0.60;;
29774;SDS011;16676;51.202;6.774;2023-07-20T18:23:31;1.38;;;0.73;;
29774;SDS011;16676;51.202;6.774;2023-07-20T18:27:33;1.65;;;0.80;;
29774;SDS011;16676;51.202;6.774;2023-07-20T18:31:37;4.50;;;0.80;;
29774;SDS011;16676;51.202;6.774;2023-07-20T18:35:40;1.58;;;0.45;;
29774;SDS011;16676;51.202;6.774;2023-07-20T18:39:44;0.50;;;0.50;;
29774;SDS011;16676;51.202;6.774;2023-07-20T18:43:46;1.50;;;0.70;;
29774;SDS011;16676;51.202;6.774;2023-07-20T18:47:48;1.58;;;0.80;;
29774;SDS011;16676;51.202;6.774;2023-07-20T18:51:51;0.93;;;0.75;;
29774;SDS011;16676;51.202;6.774;2023-07-20T18:55:53;1.70;;;0.80;;
29774;SDS011;16676;51.202;6.774;2023-07-20T18:59:55;1.20;;;0.73;;
29774;SDS011;16676;51.202;6.774;2023-07-20T19:03:57;1.30;;;0.73;;
29774;SDS011;16676;51.202;6.774;2023-07-20T19:08:00;2.75;;;0.70;;
29774;SDS011;16676;51.202;6.774;2023-07-20T19:12:03;2.42;;;0.80;;
29774;SDS011;16676;51.202;6.774;2023-07-20T19:16:06;1.65;;;0.50;;
29774;SDS011;16676;51.202;6.774;2023-07-20T19:20:08;2.20;;;0.60;;
29774;SDS011;16676;51.202;6.774;2023-07-20T19:24:16;1.90;;;0.70;;
29774;SDS011;16676;51.202;6.774;2023-07-20T19:28:19;1.38;;;0.70;;
29774;SDS011;16676;51.202;6.774;2023-07-20T19:32:21;1.08;;;0.73;;
29774;SDS011;16676;51.202;6.774;2023-07-20T19:36:23;4.35;;;0.70;;
29774;SDS011;16676;51.202;6.774;2023-07-20T19:40:26;3.90;;;0.70;;
29774;SDS011;16676;51.202;6.774;2023-07-20T19:44:28;1.27;;;0.60;;
29774;SDS011;16676;51.202;6.774;2023-07-20T19:48:30;2.50;;;0.70;;
29774;SDS011;16676;51.202;6.774;2023-07-20T19:52:32;1.45;;;0.68;;
29774;SDS011;16676;51.202;6.774;2023-07-20T19:56:36;0.70;;;0.45;;
29774;SDS011;16676;51.202;6.774;2023-07-20T20:00:38;1.67;;;0.80;;
29774;SDS011;16676;51.202;6.774;2023-07-20T20:04:41;2.88;;;0.80;;
29774;SDS011;16676;51.202;6.774;2023-07-20T20:08:43;2.72;;;0.68;;
29774;SDS011;16676;51.202;6.774;2023-07-20T20:12:46;1.25;;;0.70;;
29774;SDS011;16676;51.202;6.774;2023-07-20T20:16:49;1.13;;;0.70;;
29774;SDS011;16676;51.202;6.774;2023-07-20T20:20:52;1.08;;;0.70;;
29774;SDS011;16676;51.202;6.774;2023-07-20T20:24:54;1.05;;;0.70;;
29774;SDS011;16676;51.202;6.774;2023-07-20T20:28:57;2.08;;;0.85;;
29774;SDS011;16676;51.202;6.774;2023-07-20T20:32:59;1.40;;;0.70;;
29774;SDS011;16676;51.202;6.774;2023-07-20T20:37:01;2.17;;;0.80;;
29774;SDS011;16676;51.202;6.774;2023-07-20T20:41:05;1.40;;;0.80;;
29774;SDS011;16676;51.202;6.774;2023-07-20T20:45:08;1.30;;;0.80;;
29774;SDS011;16676;51.202;6.774;2023-07-20T20:49:11;1.55;;;0.80;;
29774;SDS011;16676;51.202;6.774;2023-07-20T20:53:14;2.17;;;0.93;;
29774;SDS011;16676;51.202;6.774;2023-07-20T20:57:19;2.95;;;1.20;;
29774;SDS011;16676;51.202;6.774;2023-07-20T21:01:22;2.55;;;0.80;;
29774;SDS011;16676;51.202;6.774;2023-07-20T21:05:25;1.35;;;0.70;;
29774;SDS011;16676;51.202;6.774;2023-07-20T21:09:27;2.20;;;1.00;;
29774;SDS011;16676;51.202;6.774;2023-07-20T21:13:29;1.95;;;1.13;;
29774;SDS011;16676;51.202;6.774;2023-07-20T21:17:33;2.75;;;0.80;;
29774;SDS011;16676;51.202;6.774;2023-07-20T21:21:35;4.18;;;1.00;;
29774;SDS011;16676;51.202;6.774;2023-07-20T21:25:37;0.88;;;0.80;;
29774;SDS011;16676;51.202;6.774;2023-07-20T21:29:39;0.80;;;0.70;;
29774;SDS011;16676;51.202;6.774;2023-07-20T21:33:42;1.55;;;0.90;;
29774;SDS011;16676;51.202;6.774;2023-07-20T21:37:44;2.05;;;0.98;;
29774;SDS011;16676;51.202;6.774;2023-07-20T21:41:46;1.65;;;0.80;;
29774;SDS011;16676;51.202;6.774;2023-07-20T21:45:48;2.10;;;1.13;;
29774;SDS011;16676;51.202;6.774;2023-07-20T21:49:51;1.63;;;1.00;;
29774;SDS011;16676;51.202;6.774;2023-07-20T21:53:53;1.30;;;0.95;;
29774;SDS011;16676;51.202;6.774;2023-07-20T21:57:55;2.30;;;0.93;;
29774;SDS011;16676;51.202;6.774;2023-07-20T22:01:57;1.20;;;1.10;;
29774;SDS011;16676;51.202;6.774;2023-07-20T22:06:01;1.73;;;1.05;;
29774;SDS011;16676;51.202;6.774;2023-07-20T22:10:03;1.42;;;1.10;;
29774;SDS011;16676;51.202;6.774;2023-07-20T22:14:05;1.50;;;1.10;;
29774;SDS011;16676;51.202;6.774;2023-07-20T22:18:08;1.60;;;1.17;;
29774;SDS011;16676;51.202;6.774;2023-07-20T22:22:12;1.67;;;0.90;;
29774;SDS011;16676;51.202;6.774;2023-07-20T22:26:14;1.17;;;0.80;;
29774;SDS011;16676;51.202;6.774;2023-07-20T22:30:17;2.20;;;1.33;;
29774;SDS011;16676;51.202;6.774;2023-07-20T22:34:20;1.75;;;1.05;;
29774;SDS011;16676;51.202;6.774;2023-07-20T22:38:23;1.88;;;1.20;;
29774;SDS011;16676;51.202;6.774;2023-07-20T22:42:25;1.90;;;1.08;;
29774;SDS011;16676;51.202;6.774;2023-07-20T22:46:27;1.10;;;1.00;;
29774;SDS011;16676;51.202;6.774;2023-07-20T22:50:29;1.35;;;1.00;;
29774;SDS011;16676;51.202;6.774;2023-07-20T22:54:33;2.05;;;1.02;;
29774;SDS011;16676;51.202;6.774;2023-07-20T22:58:35;1.85;;;1.10;;
29774;SDS011;16676;51.202;6.774;2023-07-20T23:02:37;1.80;;;0.95;;
29774;SDS011;16676;51.202;6.774;2023-07-20T23:06:42;3.75;;;1.35;;
29774;SDS011;16676;51.202;6.774;2023-07-20T23:10:45;1.70;;;1.00;;
29774;SDS011;16676;51.202;6.774;2023-07-20T23:14:47;2.60;;;1.30;;
29774;SDS011;16676;51.202;6.774;2023-07-20T23:18:49;1.35;;;1.00;;
29774;SDS011;16676;51.202;6.774;2023-07-20T23:22:51;2.22;;;1.25;;
29774;SDS011;16676;51.202;6.774;2023-07-20T23:26:54;2.88;;;0.98;;
29774;SDS011;16676;51.202;6.774;2023-07-20T23:30:56;1.40;;;0.85;;
29774;SDS011;16676;51.202;6.774;2023-07-20T23:34:58;2.13;;;1.27;;
29774;SDS011;16676;51.202;6.774;2023-07-20T23:39:00;2.22;;;1.45;;
29774;SDS011;16676;51.202;6.774;2023-07-20T23:43:03;2.30;;;1.35;;
29774;SDS011;16676;51.202;6.774;2023-07-20T23:47:06;1.60;;;1.20;;
29774;SDS011;16676;51.202;6.774;2023-07-20T23:51:09;3.03;;;1.40;;
29774;SDS011;16676;51.202;6.774;2023-07-20T23:55:13;1.75;;;1.20;;
29774;SDS011;16676;51.202;6.774;2023-07-20T23:59:17;2.90;;;1.23;;
